createdAt,value
2019-02-02T00:00:03.068Z,29.75
2019-02-02T00:02:33.075Z,31.05
2019-02-02T00:05:03.688Z,28.40
2019-02-02T00:07:33.512Z,29.10
2019-02-02T00:10:03.264Z,28.62
2019-02-02T00:12:33.443Z,30.52
2019-02-02T00:15:03.296Z,28.30
2019-02-02T00:17:33.129Z,30.60
2019-02-02T00:20:03.149Z,30.77
2019-02-02T00:22:34.079Z,29.37
2019-02-02T00:25:04.895Z,29.50
2019-02-02T00:27:50.011Z,30.20
2019-02-02T00:30:20.436Z,29.35
2019-02-02T00:32:50.946Z,28.95
2019-02-02T00:35:29.398Z,29.67
2019-02-02T00:37:59.267Z,29.67
2019-02-02T00:40:31.040Z,28.50
2019-02-02T00:43:01.960Z,28.77
2019-02-02T00:45:32.980Z,29.55
2019-02-02T00:48:03.255Z,30.35
2019-02-02T00:50:33.611Z,29.48
2019-02-02T00:53:03.497Z,31.25
2019-02-02T00:55:33.431Z,29.65
2019-02-02T00:58:03.683Z,30.02
2019-02-02T01:00:33.656Z,28.85
2019-02-02T01:03:04.138Z,30.02
2019-02-02T01:05:33.943Z,29.40
2019-02-02T01:08:04.000Z,30.90
2019-02-02T01:10:35.005Z,29.00
2019-02-02T01:13:05.403Z,31.33
2019-02-02T01:15:35.165Z,29.12
2019-02-02T01:18:05.758Z,30.08
2019-02-02T01:20:35.931Z,29.20
2019-02-02T01:23:06.321Z,31.77
2019-02-02T01:25:36.669Z,30.75
2019-02-02T01:28:06.422Z,32.00
2019-02-02T01:30:36.840Z,30.12
2019-02-02T01:33:06.261Z,30.37
2019-02-02T01:35:36.223Z,29.82
2019-02-02T01:38:05.959Z,31.12
2019-02-02T01:40:35.706Z,29.23
2019-02-02T01:43:05.704Z,30.43
2019-02-02T01:45:35.391Z,28.50
2019-02-02T01:48:05.424Z,30.10
2019-02-02T01:50:35.165Z,30.15
2019-02-02T01:53:05.461Z,29.82
2019-02-02T01:55:35.171Z,29.32
2019-02-02T01:58:16.019Z,31.85
2019-02-02T02:00:36.615Z,31.95
2019-02-02T02:03:06.564Z,30.68
2019-02-02T02:05:36.263Z,32.15
2019-02-02T02:08:06.226Z,32.05
2019-02-02T02:10:36.284Z,33.85
2019-02-02T02:13:06.571Z,33.05
2019-02-02T02:15:36.077Z,30.57
2019-02-02T02:18:05.845Z,32.83
2019-02-02T02:20:35.525Z,29.60
2019-02-02T02:23:05.247Z,32.03
2019-02-02T02:25:35.237Z,31.48
2019-02-02T02:28:05.242Z,31.37
2019-02-02T02:30:34.909Z,31.02
2019-02-02T02:33:04.933Z,32.83
2019-02-02T02:35:35.541Z,30.95
2019-02-02T02:38:05.116Z,31.05
2019-02-02T02:40:34.489Z,30.23
2019-02-02T02:43:04.355Z,31.45
2019-02-02T02:45:34.470Z,30.82
2019-02-02T02:48:04.268Z,30.27
2019-02-02T02:50:34.243Z,32.20
2019-02-02T02:53:03.973Z,30.05
2019-02-02T02:55:34.329Z,30.30
2019-02-02T02:58:03.690Z,31.60
2019-02-02T03:00:34.041Z,29.72
2019-02-02T03:03:04.087Z,31.00
2019-02-02T03:05:33.913Z,28.15
2019-02-02T03:08:03.590Z,30.70
2019-02-02T03:10:33.563Z,31.00
2019-02-02T03:13:03.303Z,31.42
2019-02-02T03:15:33.367Z,30.88
2019-02-02T03:18:03.388Z,30.35
2019-02-02T03:20:33.201Z,30.12
2019-02-02T03:23:03.034Z,32.25
2019-02-02T03:25:33.105Z,30.90
2019-02-02T03:28:02.795Z,30.45
2019-02-02T03:30:33.064Z,31.45
2019-02-02T03:33:03.162Z,30.20
2019-02-02T03:35:32.917Z,30.75
2019-02-02T03:38:03.000Z,30.52
2019-02-02T03:40:32.976Z,31.55
2019-02-02T03:43:02.660Z,31.37
2019-02-02T03:45:32.715Z,31.40
2019-02-02T03:48:02.406Z,32.00
2019-02-02T03:50:32.796Z,30.85
2019-02-02T03:53:02.495Z,29.82
2019-02-02T03:55:32.236Z,31.80
2019-02-02T03:58:02.198Z,31.97
2019-02-02T04:00:31.962Z,32.03
2019-02-02T04:03:01.653Z,32.35
2019-02-02T04:05:31.071Z,31.93
2019-02-02T04:08:00.867Z,32.42
2019-02-02T04:10:30.895Z,30.43
2019-02-02T04:13:00.624Z,30.10
2019-02-02T04:15:30.694Z,28.80
2019-02-02T04:18:00.417Z,30.35
2019-02-02T04:20:30.148Z,31.15
2019-02-02T04:23:00.181Z,30.30
2019-02-02T04:25:30.516Z,29.50
2019-02-02T04:28:00.206Z,30.25
2019-02-02T04:30:30.508Z,30.12
2019-02-02T04:33:00.491Z,30.52
2019-02-02T04:35:30.232Z,31.27
2019-02-02T04:38:00.227Z,31.30
2019-02-02T04:40:30.524Z,29.80
2019-02-02T04:43:01.906Z,28.83
2019-02-02T04:45:31.761Z,29.67
2019-02-02T04:48:02.051Z,29.45
2019-02-02T04:50:31.711Z,30.52
2019-02-02T04:53:01.776Z,30.10
2019-02-02T04:55:31.864Z,29.70
2019-02-02T04:58:01.532Z,28.60
2019-02-02T05:00:31.248Z,28.27
2019-02-02T05:03:01.235Z,30.10
2019-02-02T05:05:31.506Z,29.45
2019-02-02T05:08:01.676Z,28.65
2019-02-02T05:10:31.371Z,30.10
2019-02-02T05:13:01.426Z,29.65
2019-02-02T05:15:31.467Z,30.80
2019-02-02T05:18:01.551Z,32.50
2019-02-02T05:20:31.891Z,32.33
2019-02-02T05:23:01.940Z,31.33
2019-02-02T05:25:32.228Z,32.40
2019-02-02T05:28:01.978Z,30.23
2019-02-02T05:30:32.411Z,32.60
2019-02-02T05:33:03.907Z,31.12
2019-02-02T05:35:34.028Z,32.28
2019-02-02T05:38:04.252Z,29.77
2019-02-02T05:40:34.562Z,31.52
2019-02-02T05:43:05.009Z,28.85
2019-02-02T05:45:35.290Z,32.93
2019-02-02T05:48:05.723Z,31.65
2019-02-02T05:50:35.391Z,31.10
2019-02-02T05:53:05.653Z,31.73
2019-02-02T05:55:35.410Z,31.37
2019-02-02T05:58:05.228Z,31.57
2019-02-02T06:00:41.329Z,32.20
2019-02-02T06:03:11.629Z,32.33
2019-02-02T06:05:41.656Z,31.65
2019-02-02T06:08:11.982Z,35.45
2019-02-02T06:10:41.689Z,33.98
2019-02-02T06:13:11.746Z,34.10
2019-02-02T06:15:41.747Z,33.33
2019-02-02T06:18:11.503Z,33.35
2019-02-02T06:20:41.207Z,32.35
2019-02-02T06:23:10.641Z,33.70
2019-02-02T06:25:40.724Z,35.43
2019-02-02T06:28:10.483Z,34.30
2019-02-02T06:30:39.838Z,31.82
2019-02-02T06:33:09.904Z,29.85
2019-02-02T06:35:40.184Z,29.20
2019-02-02T06:38:09.864Z,28.75
2019-02-02T06:40:40.160Z,26.62
2019-02-02T06:43:09.521Z,25.75
2019-02-02T06:45:39.569Z,28.05
2019-02-02T06:48:09.587Z,22.85
2019-02-02T06:50:39.616Z,21.17
2019-02-02T06:53:09.635Z,20.55
2019-02-02T06:55:39.604Z,22.58
2019-02-02T06:58:09.100Z,26.37
2019-02-02T07:00:39.092Z,25.10
2019-02-02T07:03:10.691Z,23.57
2019-02-02T07:05:40.773Z,24.10
2019-02-02T07:08:10.497Z,24.90
2019-02-02T07:10:40.653Z,31.30
2019-02-02T07:13:10.684Z,30.95
2019-02-02T07:15:40.799Z,26.25
2019-02-02T07:18:10.827Z,27.05
2019-02-02T07:20:40.801Z,24.75
2019-02-02T07:23:10.919Z,24.02
2019-02-02T07:25:41.804Z,23.80
2019-02-02T07:28:12.131Z,24.52
2019-02-02T07:30:41.840Z,23.87
2019-02-02T07:33:11.703Z,23.95
2019-02-02T07:35:41.775Z,23.95
2019-02-02T07:38:11.874Z,24.90
2019-02-02T07:40:42.252Z,23.22
2019-02-02T07:43:12.331Z,24.95
2019-02-02T07:45:42.387Z,24.20
2019-02-02T07:48:12.057Z,25.52
2019-02-02T07:50:41.834Z,24.20
2019-02-02T07:53:11.485Z,24.27
2019-02-02T07:55:40.926Z,22.82
2019-02-02T07:58:10.736Z,23.95
2019-02-02T08:00:41.378Z,23.98
2019-02-02T08:03:12.843Z,22.32
2019-02-02T08:05:42.898Z,24.25
2019-02-02T08:08:12.890Z,24.77
2019-02-02T08:10:42.894Z,26.12
2019-02-02T08:13:12.164Z,24.98
2019-02-02T08:15:42.170Z,24.47
2019-02-02T08:18:11.869Z,23.02
2019-02-02T08:20:42.179Z,25.60
2019-02-02T08:23:11.973Z,22.93
2019-02-02T08:25:41.699Z,23.67
2019-02-02T08:28:11.177Z,21.00
2019-02-02T08:30:51.638Z,22.73
2019-02-02T08:33:12.913Z,24.50
2019-02-02T08:35:43.248Z,24.07
2019-02-02T08:38:13.114Z,25.17
2019-02-02T08:40:43.159Z,26.93
2019-02-02T08:43:13.011Z,26.05
2019-02-02T08:45:42.711Z,25.92
2019-02-02T08:48:12.479Z,24.70
2019-02-02T08:50:42.244Z,26.30
2019-02-02T08:53:12.237Z,26.05
2019-02-02T08:55:42.003Z,26.05
2019-02-02T08:58:12.100Z,25.68
2019-02-02T09:00:41.846Z,25.25
2019-02-02T09:03:11.690Z,25.02
2019-02-02T09:05:40.901Z,26.35
2019-02-02T09:08:11.050Z,25.72
2019-02-02T09:10:40.721Z,25.52
2019-02-02T09:13:11.083Z,26.70
2019-02-02T09:15:41.142Z,24.80
2019-02-02T09:18:11.019Z,26.80
2019-02-02T09:20:41.100Z,27.13
2019-02-02T09:23:11.524Z,27.50
2019-02-02T09:25:41.373Z,26.37
2019-02-02T09:28:11.127Z,30.80
2019-02-02T09:30:41.171Z,29.63
2019-02-02T09:33:10.973Z,26.40
2019-02-02T09:35:40.987Z,27.20
2019-02-02T09:38:12.288Z,28.38
2019-02-02T09:40:42.743Z,28.20
2019-02-02T09:43:12.869Z,27.25
2019-02-02T09:45:42.982Z,28.12
2019-02-02T09:48:12.725Z,27.85
2019-02-02T09:50:42.617Z,26.82
2019-02-02T09:53:12.930Z,26.05
2019-02-02T09:55:42.710Z,26.33
2019-02-02T09:58:12.660Z,28.17
2019-02-02T10:00:43.195Z,26.20
2019-02-02T10:03:13.294Z,31.40
2019-02-02T10:05:42.788Z,29.90
2019-02-02T10:08:12.625Z,27.60
2019-02-02T10:10:42.655Z,24.65
2019-02-02T10:13:12.680Z,24.60
2019-02-02T10:15:42.758Z,25.23
2019-02-02T10:18:12.895Z,24.98
2019-02-02T10:20:43.053Z,24.50
2019-02-02T10:23:13.096Z,25.52
2019-02-02T10:25:43.140Z,23.25
2019-02-02T10:28:14.214Z,24.82
2019-02-02T10:30:45.782Z,25.65
2019-02-02T10:33:17.650Z,24.67
2019-02-02T10:35:47.685Z,25.10
2019-02-02T10:38:17.383Z,25.52
2019-02-02T10:40:47.362Z,26.30
2019-02-02T10:43:17.387Z,26.42
2019-02-02T10:45:47.397Z,26.60
2019-02-02T10:48:16.843Z,25.65
2019-02-02T10:50:46.908Z,27.07
2019-02-02T10:53:17.298Z,25.10
2019-02-02T10:55:47.025Z,25.55
2019-02-02T10:58:17.111Z,25.70
2019-02-02T11:00:46.926Z,24.27
2019-02-02T11:03:16.680Z,25.50
2019-02-02T11:05:46.886Z,26.42
2019-02-02T11:08:16.973Z,25.30
2019-02-02T11:10:46.686Z,25.87
2019-02-02T11:13:17.104Z,25.23
2019-02-02T11:15:47.170Z,25.27
2019-02-02T11:18:17.055Z,27.57
2019-02-02T11:20:47.502Z,26.67
2019-02-02T11:23:17.960Z,26.50
2019-02-02T11:25:48.457Z,26.47
2019-02-02T11:28:19.424Z,26.43
2019-02-02T11:30:52.198Z,26.23
2019-02-02T11:33:21.736Z,26.97
2019-02-02T11:35:51.766Z,26.63
2019-02-02T11:38:21.777Z,27.07
2019-02-02T11:40:51.832Z,27.65
2019-02-02T11:43:21.610Z,28.00
2019-02-02T11:45:52.265Z,28.23
2019-02-02T11:48:21.720Z,29.00
2019-02-02T11:50:52.026Z,28.02
2019-02-02T11:53:22.333Z,28.53
2019-02-02T11:55:52.331Z,26.77
2019-02-02T11:58:22.624Z,26.70
2019-02-02T12:00:52.106Z,25.02
2019-02-02T12:03:21.816Z,26.12
2019-02-02T12:05:51.895Z,27.20
2019-02-02T12:08:22.252Z,28.47
2019-02-02T12:10:52.011Z,28.70
2019-02-02T12:13:22.098Z,26.47
2019-02-02T12:15:52.104Z,27.57
2019-02-02T12:18:21.843Z,25.13
2019-02-02T12:20:51.616Z,26.33
2019-02-02T12:23:22.032Z,30.60
2019-02-02T12:25:53.226Z,31.70
2019-02-02T12:28:23.052Z,26.10
2019-02-02T12:30:53.389Z,27.20
2019-02-02T12:33:25.942Z,27.03
2019-02-02T12:35:56.423Z,27.30
2019-02-02T12:38:26.223Z,28.80
2019-02-02T12:40:59.534Z,27.45
2019-02-02T12:43:28.030Z,28.47
2019-02-02T12:45:58.066Z,27.37
2019-02-02T12:48:28.259Z,31.10
2019-02-02T12:50:58.383Z,31.83
2019-02-02T12:53:28.111Z,27.37
2019-02-02T12:55:58.290Z,24.43
2019-02-02T12:58:28.505Z,25.73
2019-02-02T13:00:58.275Z,24.87
2019-02-02T13:03:28.580Z,27.57
2019-02-02T13:05:58.664Z,27.70
2019-02-02T13:08:28.371Z,24.20
2019-02-02T13:10:58.145Z,26.20
2019-02-02T13:13:27.825Z,24.43
2019-02-02T13:15:57.647Z,23.60
2019-02-02T13:18:27.958Z,24.00
2019-02-02T13:20:57.950Z,25.97
2019-02-02T13:23:27.695Z,22.43
2019-02-02T13:26:05.078Z,22.47
2019-02-02T13:28:29.201Z,23.47
2019-02-02T13:30:59.307Z,24.63
2019-02-02T13:33:29.303Z,22.60
2019-02-02T13:35:58.953Z,23.00
2019-02-02T13:38:28.763Z,22.40
2019-02-02T13:40:58.772Z,21.33
2019-02-02T13:43:28.782Z,22.87
2019-02-02T13:45:59.137Z,22.60
2019-02-02T13:48:28.271Z,21.53
2019-02-02T13:50:57.738Z,23.10
2019-02-02T13:53:27.819Z,21.40
2019-02-02T13:55:57.628Z,22.97
2019-02-02T13:58:27.722Z,20.10
2019-02-02T14:00:57.803Z,20.07
2019-02-02T14:03:27.651Z,19.80
2019-02-02T14:05:57.482Z,20.23
2019-02-02T14:08:26.959Z,20.30
2019-02-02T14:10:56.702Z,18.30
2019-02-02T14:13:26.780Z,19.13
2019-02-02T14:15:56.937Z,18.47
2019-02-02T14:18:26.583Z,18.97
2019-02-02T14:20:56.316Z,17.47
2019-02-02T14:23:26.289Z,17.47
2019-02-02T14:25:56.632Z,19.80
2019-02-02T14:28:28.476Z,18.60
2019-02-02T14:30:58.132Z,17.53
2019-02-02T14:33:27.877Z,17.87
2019-02-02T14:35:57.573Z,17.57
2019-02-02T14:38:27.964Z,17.67
2019-02-02T14:40:58.040Z,17.40
2019-02-02T14:43:28.136Z,16.73
2019-02-02T14:45:57.907Z,17.70
2019-02-02T14:48:27.752Z,19.43
2019-02-02T14:50:57.723Z,18.30
2019-02-02T14:53:28.012Z,17.87
2019-02-02T14:55:58.461Z,18.50
2019-02-02T14:58:28.276Z,18.90
2019-02-02T15:00:58.620Z,19.30
2019-02-02T15:03:28.160Z,20.47
2019-02-02T15:05:58.651Z,21.90
2019-02-02T15:08:28.726Z,22.00
2019-02-02T15:10:58.832Z,20.43
2019-02-02T15:13:28.868Z,20.87
2019-02-02T15:15:59.276Z,23.13
2019-02-02T15:18:28.764Z,33.77
2019-02-02T15:20:58.703Z,25.20
2019-02-02T15:23:28.766Z,22.43
2019-02-02T15:25:58.547Z,20.73
2019-02-02T15:28:28.847Z,21.40
2019-02-02T15:30:58.968Z,20.93
2019-02-02T15:33:37.536Z,21.40
2019-02-02T15:36:00.867Z,19.67
2019-02-02T15:38:30.422Z,18.77
2019-02-02T15:41:00.501Z,20.60
2019-02-02T15:43:30.320Z,19.37
2019-02-02T15:46:00.368Z,20.47
2019-02-02T15:48:30.450Z,19.60
2019-02-02T15:51:00.557Z,20.20
2019-02-02T15:53:30.320Z,19.80
2019-02-02T15:56:00.165Z,22.53
2019-02-02T15:58:30.344Z,20.60
2019-02-02T16:01:00.408Z,20.17
2019-02-02T16:03:30.609Z,20.70
2019-02-02T16:06:00.636Z,21.07
2019-02-02T16:08:30.904Z,22.47
2019-02-02T16:11:00.677Z,21.53
2019-02-02T16:13:30.807Z,20.00
2019-02-02T16:16:00.883Z,19.30
2019-02-02T16:18:31.262Z,19.97
2019-02-02T16:21:01.319Z,21.40
2019-02-02T16:23:31.386Z,19.87
2019-02-02T16:26:01.170Z,20.40
2019-02-02T16:28:30.655Z,20.20
2019-02-02T16:31:00.174Z,19.97
2019-02-02T16:33:30.574Z,21.17
2019-02-02T16:36:00.665Z,21.70
2019-02-02T16:38:31.093Z,22.17
2019-02-02T16:41:01.521Z,20.20
2019-02-02T16:43:31.575Z,21.90
2019-02-02T16:46:01.680Z,20.87
2019-02-02T16:48:31.861Z,20.70
2019-02-02T16:51:01.938Z,22.37
2019-02-02T16:53:31.909Z,19.93
2019-02-02T16:56:01.730Z,20.43
2019-02-02T16:58:31.543Z,20.83
2019-02-02T17:01:01.535Z,21.77
2019-02-02T17:03:31.591Z,20.93
2019-02-02T17:06:01.092Z,21.97
2019-02-02T17:08:31.457Z,20.70
2019-02-02T17:11:01.583Z,21.93
2019-02-02T17:13:32.024Z,22.70
2019-02-02T17:16:01.795Z,25.17
2019-02-02T17:18:31.680Z,31.20
2019-02-02T17:21:01.443Z,31.97
2019-02-02T17:23:31.815Z,35.80
2019-02-02T17:26:01.842Z,34.17
2019-02-02T17:28:31.056Z,31.30
2019-02-02T17:31:01.373Z,28.40
2019-02-02T17:33:31.788Z,27.13
2019-02-02T17:36:01.812Z,24.23
2019-02-02T17:38:32.268Z,25.50
2019-02-02T17:41:01.755Z,22.03
2019-02-02T17:43:31.545Z,24.10
2019-02-02T17:46:01.275Z,24.70
2019-02-02T17:48:31.670Z,25.47
2019-02-02T17:51:01.837Z,22.40
2019-02-02T17:53:32.170Z,23.40
2019-02-02T17:56:02.228Z,24.03
2019-02-02T17:58:39.244Z,23.90
2019-02-02T18:01:04.072Z,24.03
2019-02-02T18:03:34.224Z,23.57
2019-02-02T18:06:04.873Z,24.80
2019-02-02T18:08:35.278Z,26.17
2019-02-02T18:11:05.547Z,24.80
2019-02-02T18:13:35.355Z,24.07
2019-02-02T18:16:05.700Z,24.83
2019-02-02T18:18:36.222Z,26.20
2019-02-02T18:21:06.372Z,23.20
2019-02-02T18:23:36.757Z,24.83
2019-02-02T18:26:06.785Z,23.95
2019-02-02T18:28:36.548Z,24.37
2019-02-02T18:31:06.535Z,23.97
2019-02-02T18:33:36.959Z,23.67
2019-02-02T18:36:07.443Z,25.50
2019-02-02T18:38:37.869Z,28.12
2019-02-02T18:41:08.562Z,28.80
2019-02-02T18:43:40.511Z,26.45
2019-02-02T18:46:10.298Z,25.30
2019-02-02T18:48:40.913Z,24.40
2019-02-02T18:51:13.791Z,27.00
2019-02-02T18:53:44.010Z,23.80
2019-02-02T18:56:15.839Z,25.77
2019-02-02T18:58:46.579Z,26.00
2019-02-02T19:01:18.764Z,25.77
2019-02-02T19:03:50.889Z,24.43
2019-02-02T19:06:20.937Z,27.07
2019-02-02T19:08:50.702Z,23.80
2019-02-02T19:11:20.176Z,24.37
2019-02-02T19:13:50.504Z,24.18
2019-02-02T19:16:21.278Z,23.10
2019-02-02T19:18:51.316Z,23.60
2019-02-02T19:21:21.319Z,22.83
2019-02-02T19:23:51.401Z,20.77
2019-02-02T19:26:22.130Z,20.43
2019-02-02T19:28:52.045Z,21.97
2019-02-02T19:31:22.694Z,21.40
2019-02-02T19:33:52.903Z,21.35
2019-02-02T19:36:22.863Z,20.10
2019-02-02T19:38:54.284Z,21.37
2019-02-02T19:41:25.012Z,19.90
2019-02-02T19:43:55.082Z,20.17
2019-02-02T19:46:25.424Z,21.90
2019-02-02T19:48:55.522Z,20.48
2019-02-02T19:51:25.898Z,21.13
2019-02-02T19:53:55.660Z,19.73
2019-02-02T19:56:25.782Z,19.80
2019-02-02T19:58:55.923Z,18.73
2019-02-02T20:01:26.152Z,20.72
2019-02-02T20:03:56.407Z,21.57
2019-02-02T20:06:26.462Z,21.45
2019-02-02T20:08:56.511Z,20.83
2019-02-02T20:11:26.552Z,21.93
2019-02-02T20:13:56.719Z,21.30
2019-02-02T20:16:26.771Z,21.17
2019-02-02T20:18:57.250Z,20.17
2019-02-02T20:21:27.473Z,20.57
2019-02-02T20:23:57.588Z,20.27
2019-02-02T20:26:27.717Z,21.30
2019-02-02T20:28:57.847Z,22.07
2019-02-02T20:31:27.723Z,24.23
2019-02-02T20:33:57.888Z,26.30
2019-02-02T20:36:28.467Z,25.25
2019-02-02T20:38:58.659Z,26.60
2019-02-02T20:41:28.881Z,27.13
2019-02-02T20:43:58.924Z,25.50
2019-02-02T20:46:28.401Z,25.70
2019-02-02T20:48:58.716Z,25.13
2019-02-02T20:51:28.727Z,24.43
2019-02-02T20:53:58.483Z,23.13
2019-02-02T20:56:28.407Z,22.05
2019-02-02T20:58:58.681Z,22.40
2019-02-02T21:01:28.864Z,22.50
2019-02-02T21:04:00.944Z,21.50
2019-02-02T21:06:31.873Z,18.90
2019-02-02T21:09:01.508Z,20.10
2019-02-02T21:11:32.772Z,17.12
2019-02-02T21:14:03.122Z,18.82
2019-02-02T21:16:33.507Z,17.95
2019-02-02T21:19:04.183Z,20.10
2019-02-02T21:21:34.719Z,19.73
2019-02-02T21:24:05.416Z,20.08
2019-02-02T21:26:35.289Z,20.55
2019-02-02T21:29:05.756Z,22.40
2019-02-02T21:31:35.698Z,20.75
2019-02-02T21:34:05.278Z,22.25
2019-02-02T21:36:35.416Z,20.48
2019-02-02T21:39:08.039Z,19.77
2019-02-02T21:41:37.899Z,18.92
2019-02-02T21:44:08.728Z,17.95
2019-02-02T21:46:39.167Z,17.77
2019-02-02T21:49:09.265Z,18.25
2019-02-02T21:51:39.669Z,19.27
2019-02-02T21:54:09.122Z,19.02
2019-02-02T21:56:39.316Z,18.25
2019-02-02T21:59:08.841Z,17.10
2019-02-02T22:01:39.523Z,19.75
2019-02-02T22:04:09.347Z,18.85
2019-02-02T22:06:39.526Z,18.90
2019-02-02T22:09:09.883Z,17.95
2019-02-02T22:11:40.307Z,19.07
2019-02-02T22:14:11.128Z,18.98
2019-02-02T22:16:40.848Z,18.80
2019-02-02T22:19:11.034Z,18.77
2019-02-02T22:21:41.447Z,18.82
2019-02-02T22:24:17.976Z,19.55
2019-02-02T22:26:48.065Z,19.62
2019-02-02T22:29:17.952Z,18.92
2019-02-02T22:31:48.319Z,19.95
2019-02-02T22:34:59.086Z,18.73
2019-02-02T22:37:29.368Z,19.32
2019-02-02T22:39:59.667Z,19.17
2019-02-02T22:42:29.738Z,22.00
2019-02-02T22:45:00.343Z,20.57
2019-02-02T22:47:30.730Z,20.45
2019-02-02T22:50:00.508Z,20.52
2019-02-02T22:52:30.657Z,22.60
2019-02-02T22:55:00.456Z,22.70
2019-02-02T22:57:30.477Z,20.75
2019-02-02T23:00:00.573Z,21.73
2019-02-02T23:02:30.891Z,20.48
2019-02-02T23:12:29.244Z,22.75
2019-02-02T23:19:03.468Z,24.45
2019-02-02T23:21:34.021Z,24.60
2019-02-02T23:24:03.838Z,26.95
2019-02-02T23:26:33.565Z,25.70
2019-02-02T23:29:03.598Z,26.65
2019-02-02T23:31:33.336Z,26.52
2019-02-02T23:34:03.088Z,26.27
2019-02-02T23:36:33.207Z,28.02
2019-02-02T23:39:03.751Z,27.80
2019-02-02T23:41:33.809Z,28.52
2019-02-02T23:44:04.426Z,27.62
2019-02-02T23:46:34.779Z,27.67
2019-02-02T23:49:05.184Z,26.30
2019-02-02T23:51:35.161Z,26.10
2019-02-02T23:54:05.396Z,24.47
2019-02-02T23:56:35.675Z,29.35
2019-02-02T23:59:05.753Z,26.77
